Time;durP1;ratioP1;P1;durP2;ratioP2;P2;SDS_P1;SDS_P2;PMS_P1;PMS_P2;Temp;Humidity;BMP_temperature;BMP_pressure;BME280_temperature;BME280_humidity;BME280_pressure;Samples;Min_cycle;Max_cycle;Signal;HPM_P1;HPM_P2
2023/08/09 00:00:55;;;;;;;8.45;1.55;;;10.50;90.70;;;;;;5029028;28;20037;-68
2023/08/09 00:03:20;;;;;;;6.28;1.35;;;10.40;91.00;;;;;;5028695;28;20087;-68
2023/08/09 00:05:46;;;;;;;5.22;1.38;;;10.40;91.10;;;;;;5032781;28;20043;-68
2023/08/09 00:08:11;;;;;;;2.78;1.17;;;10.30;91.30;;;;;;5026044;28;20454;-68
2023/08/09 00:10:37;;;;;;;6.55;1.48;;;10.30;91.20;;;;;;5027909;28;20405;-68
2023/08/09 00:13:03;;;;;;;6.40;1.25;;;10.20;91.50;;;;;;5036693;28;20056;-68
2023/08/09 00:15:29;;;;;;;4.82;1.27;;;10.20;91.80;;;;;;5019876;28;20029;-68
2023/08/09 00:17:54;;;;;;;6.05;1.58;;;10.10;91.90;;;;;;5035709;28;20036;-67
2023/08/09 00:20:20;;;;;;;3.67;1.45;;;10.10;92.20;;;;;;5028315;28;20087;-68
2023/08/09 00:22:46;;;;;;;6.45;1.50;;;10.00;92.30;;;;;;5037884;28;20037;-67
2023/08/09 00:25:12;;;;;;;7.57;1.77;;;10.00;92.60;;;;;;5027604;28;20088;-68
2023/08/09 00:27:37;;;;;;;9.15;1.60;;;10.10;92.80;;;;;;5027609;28;20112;-68
2023/08/09 00:30:04;;;;;;;5.68;1.48;;;10.00;92.60;;;;;;5022996;28;20092;-68
2023/08/09 00:32:29;;;;;;;6.72;1.67;;;10.00;92.70;;;;;;5030912;28;20060;-68
2023/08/09 00:34:55;;;;;;;6.07;1.50;;;9.90;92.80;;;;;;5028175;28;20057;-68
2023/08/09 00:37:21;;;;;;;3.72;1.23;;;10.00;93.00;;;;;;5031028;28;20044;-68
2023/08/09 00:39:46;;;;;;;5.50;1.45;;;9.90;93.10;;;;;;5026043;28;20030;-68
2023/08/09 00:42:12;;;;;;;7.07;1.55;;;9.90;93.20;;;;;;5026549;28;20056;-68
2023/08/09 00:44:38;;;;;;;7.85;1.98;;;9.80;93.20;;;;;;5025831;28;20046;-68
2023/08/09 00:47:06;;;;;;;9.02;1.70;;;9.80;93.40;;;;;;5027097;28;20041;-68
2023/08/09 00:49:32;;;;;;;7.97;1.60;;;9.80;93.40;;;;;;5022612;28;20026;-68
2023/08/09 00:51:58;;;;;;;4.93;1.38;;;9.80;93.50;;;;;;5023579;28;20040;-68
2023/08/09 00:54:23;;;;;;;4.20;1.60;;;9.80;93.50;;;;;;5022169;28;20043;-68
2023/08/09 00:56:50;;;;;;;6.00;1.65;;;9.80;93.60;;;;;;5025939;28;20376;-68
2023/08/09 00:59:16;;;;;;;8.07;1.73;;;9.80;93.60;;;;;;5026488;28;20029;-68
2023/08/09 01:01:41;;;;;;;5.15;1.60;;;9.90;93.60;;;;;;5029348;28;20540;-68
2023/08/09 01:04:07;;;;;;;7.28;1.83;;;9.90;93.70;;;;;;5031074;28;20042;-68
2023/08/09 01:06:46;;;;;;;4.93;1.75;;;10.00;93.70;;;;;;5023671;28;20039;-67
2023/08/09 01:09:29;;;;;;;9.25;1.80;;;10.00;93.50;;;;;;5030139;28;20172;-68
2023/08/09 01:12:07;;;;;;;5.97;1.83;;;10.10;93.60;;;;;;5022752;28;20040;-67
2023/08/09 01:14:36;;;;;;;10.23;1.92;;;10.10;93.50;;;;;;5027885;28;20112;-68
2023/08/09 01:17:03;;;;;;;7.50;2.00;;;10.20;93.50;;;;;;5022688;28;20470;-68
2023/08/09 01:19:37;;;;;;;7.47;2.28;;;10.20;93.50;;;;;;5023357;28;20030;-68
2023/08/09 01:22:14;;;;;;;5.22;1.92;;;10.20;93.50;;;;;;5027871;28;20370;-68
2023/08/09 01:24:40;;;;;;;8.52;1.80;;;10.10;93.60;;;;;;5026103;28;20482;-68
2023/08/09 01:27:06;;;;;;;7.88;1.98;;;10.10;93.70;;;;;;5018105;28;20037;-68
2023/08/09 01:29:31;;;;;;;9.65;2.00;;;10.10;93.80;;;;;;5023932;28;20134;-69
2023/08/09 01:31:57;;;;;;;4.90;1.83;;;10.00;93.90;;;;;;5024382;28;20050;-68
2023/08/09 01:34:22;;;;;;;9.98;1.83;;;10.00;94.10;;;;;;5022431;28;20243;-69
2023/08/09 01:36:52;;;;;;;6.72;2.00;;;9.90;94.30;;;;;;5017362;28;20037;-68
2023/08/09 01:39:24;;;;;;;3.45;1.35;;;9.90;94.40;;;;;;5023584;28;20128;-68
2023/08/09 01:41:51;;;;;;;4.95;1.60;;;9.90;94.60;;;;;;5040095;28;20120;-68
2023/08/09 01:44:16;;;;;;;5.30;1.60;;;9.90;94.60;;;;;;5024910;28;20041;-68
2023/08/09 01:46:44;;;;;;;8.45;1.70;;;9.90;94.70;;;;;;5023964;28;20403;-68
2023/08/09 01:49:11;;;;;;;7.13;1.83;;;10.00;94.60;;;;;;5032270;28;20053;-68
2023/08/09 01:51:38;;;;;;;3.80;1.40;;;10.10;94.70;;;;;;5023604;28;20034;-68
2023/08/09 01:54:04;;;;;;;6.30;1.80;;;10.10;94.60;;;;;;5033500;28;20052;-68
2023/08/09 01:56:30;;;;;;;5.13;1.63;;;10.10;94.50;;;;;;5032903;28;20486;-68
2023/08/09 01:58:55;;;;;;;7.25;1.70;;;10.20;94.50;;;;;;5026271;28;20045;-69
2023/08/09 02:01:21;;;;;;;6.82;1.70;;;10.20;94.40;;;;;;5023146;28;20044;-68
2023/08/09 02:03:46;;;;;;;5.32;2.10;;;10.20;94.50;;;;;;5025657;28;20558;-68
2023/08/09 02:06:12;;;;;;;7.15;1.90;;;10.30;94.50;;;;;;5031556;28;20033;-68
2023/08/09 02:08:37;;;;;;;7.97;1.80;;;10.30;94.60;;;;;;5028496;28;20067;-68
2023/08/09 02:11:03;;;;;;;5.97;1.83;;;10.20;94.70;;;;;;5025640;28;20206;-68
2023/08/09 02:13:28;;;;;;;6.45;1.73;;;10.20;94.90;;;;;;5027688;28;20056;-68
2023/08/09 02:15:54;;;;;;;5.97;1.70;;;10.30;94.80;;;;;;5028200;28;20032;-68
2023/08/09 02:18:19;;;;;;;5.53;1.85;;;10.30;94.90;;;;;;5027759;28;20100;-68
2023/08/09 02:20:44;;;;;;;7.32;1.90;;;10.40;94.90;;;;;;5037561;28;20429;-68
2023/08/09 02:23:10;;;;;;;7.05;1.90;;;10.40;94.80;;;;;;5033420;28;20048;-68
2023/08/09 02:25:35;;;;;;;4.85;2.25;;;10.50;94.70;;;;;;5025821;28;20213;-68
2023/08/09 02:28:01;;;;;;;7.90;2.03;;;10.60;94.70;;;;;;5036927;28;20504;-68
2023/08/09 02:30:26;;;;;;;5.30;1.90;;;10.80;94.50;;;;;;5028388;28;20042;-68
2023/08/09 02:32:52;;;;;;;7.70;1.83;;;10.80;94.20;;;;;;5032247;28;20041;-68
2023/08/09 02:35:17;;;;;;;5.30;1.75;;;10.80;94.30;;;;;;5031461;28;20117;-68
2023/08/09 02:37:43;;;;;;;8.52;2.17;;;10.80;94.20;;;;;;5027159;28;20580;-68
2023/08/09 02:40:10;;;;;;;7.10;2.00;;;10.90;94.10;;;;;;5021813;28;20033;-68
2023/08/09 02:42:37;;;;;;;5.10;2.00;;;10.90;94.10;;;;;;5039081;28;20032;-68
2023/08/09 02:45:03;;;;;;;6.20;2.20;;;10.90;93.90;;;;;;5024190;28;20040;-68
2023/08/09 02:47:28;;;;;;;5.35;1.77;;;10.90;94.20;;;;;;5022651;28;20034;-68
2023/08/09 02:49:54;;;;;;;6.40;1.95;;;10.80;94.20;;;;;;5031707;28;20060;-68
2023/08/09 02:52:20;;;;;;;9.43;2.30;;;10.80;94.30;;;;;;5033102;28;20037;-68
2023/08/09 02:54:47;;;;;;;8.18;1.98;;;10.80;94.30;;;;;;5033850;28;20550;-68
2023/08/09 02:57:13;;;;;;;7.57;1.95;;;10.80;94.60;;;;;;5029875;28;20499;-69
2023/08/09 02:59:39;;;;;;;5.93;2.00;;;10.70;94.60;;;;;;5035080;28;20048;-69
2023/08/09 03:02:05;;;;;;;7.95;2.10;;;10.70;94.70;;;;;;5033978;28;20033;-68
2023/08/09 03:04:31;;;;;;;6.75;2.10;;;10.70;94.80;;;;;;5034344;28;20026;-68
2023/08/09 03:06:57;;;;;;;6.93;2.20;;;10.70;95.00;;;;;;5039682;28;20136;-68
2023/08/09 03:09:22;;;;;;;7.07;2.05;;;10.70;95.10;;;;;;5034676;28;20044;-68
2023/08/09 03:11:48;;;;;;;7.22;2.03;;;10.70;94.90;;;;;;5027315;28;20034;-68
2023/08/09 03:14:13;;;;;;;11.10;2.40;;;10.60;95.10;;;;;;5026594;28;20108;-68
2023/08/09 03:16:41;;;;;;;5.82;2.10;;;10.50;95.30;;;;;;5036822;28;20103;-68
2023/08/09 03:19:06;;;;;;;9.63;2.40;;;10.50;95.50;;;;;;5035650;28;20057;-68
2023/08/09 03:21:32;;;;;;;7.22;2.10;;;10.40;95.70;;;;;;5027474;28;20610;-68
2023/08/09 03:23:58;;;;;;;8.05;2.00;;;10.40;96.10;;;;;;5033136;28;20052;-68
2023/08/09 03:26:23;;;;;;;11.15;2.78;;;10.40;96.00;;;;;;5026897;28;20044;-68
2023/08/09 03:28:49;;;;;;;7.10;2.78;;;10.40;96.20;;;;;;5023358;28;20074;-68
2023/08/09 03:31:14;;;;;;;9.05;2.67;;;10.30;96.30;;;;;;5028074;28;20037;-68
2023/08/09 03:33:41;;;;;;;8.25;2.60;;;10.30;96.50;;;;;;5032719;28;20053;-68
2023/08/09 03:36:06;;;;;;;6.18;2.95;;;10.30;96.60;;;;;;5030300;28;20037;-68
2023/08/09 03:38:32;;;;;;;8.82;2.65;;;10.30;96.70;;;;;;5023905;28;20065;-68
2023/08/09 03:40:57;;;;;;;9.63;3.03;;;10.30;96.70;;;;;;5024980;28;20030;-68
2023/08/09 03:43:23;;;;;;;9.48;3.47;;;10.30;96.90;;;;;;5035748;28;20038;-68
2023/08/09 03:45:48;;;;;;;6.15;3.30;;;10.30;97.00;;;;;;5017158;28;20088;-68
2023/08/09 03:48:14;;;;;;;7.70;2.85;;;10.30;97.10;;;;;;5025928;28;20132;-68
2023/08/09 03:50:39;;;;;;;12.32;2.83;;;10.20;97.20;;;;;;5031814;28;20432;-68
2023/08/09 03:53:05;;;;;;;10.38;3.30;;;10.20;97.30;;;;;;5022970;28;20061;-68
2023/08/09 03:55:30;;;;;;;7.68;3.05;;;10.30;97.30;;;;;;5018532;28;20041;-68
2023/08/09 03:57:56;;;;;;;8.68;3.13;;;10.30;97.50;;;;;;5019158;28;20064;-68
2023/08/09 04:00:22;;;;;;;12.20;3.72;;;10.30;97.50;;;;;;5026769;28;20117;-68
2023/08/09 04:02:49;;;;;;;10.20;3.63;;;10.30;97.60;;;;;;5026015;28;20490;-68
2023/08/09 04:05:16;;;;;;;7.22;3.40;;;10.30;97.60;;;;;;5014478;28;20030;-68
2023/08/09 04:07:42;;;;;;;10.02;3.95;;;10.30;97.70;;;;;;5022283;28;20021;-68
2023/08/09 04:10:08;;;;;;;11.07;3.40;;;10.30;97.80;;;;;;5029527;28;20036;-68
2023/08/09 04:12:37;;;;;;;7.13;3.70;;;10.30;97.70;;;;;;5024420;28;20043;-68
2023/08/09 04:15:04;;;;;;;9.00;3.63;;;10.30;97.80;;;;;;5027943;28;20036;-68
2023/08/09 04:17:31;;;;;;;7.88;3.67;;;10.40;97.80;;;;;;5022220;28;20029;-68
2023/08/09 04:19:57;;;;;;;12.20;4.20;;;10.30;97.90;;;;;;5028894;28;20423;-68
2023/08/09 04:22:23;;;;;;;10.23;3.85;;;10.40;98.00;;;;;;5036046;28;20036;-68
2023/08/09 04:24:50;;;;;;;13.00;3.45;;;10.40;97.90;;;;;;5028202;28;20497;-68
2023/08/09 04:27:15;;;;;;;13.60;4.38;;;10.50;98.00;;;;;;5025658;28;20103;-67
2023/08/09 04:29:41;;;;;;;8.20;3.75;;;10.50;98.00;;;;;;5019427;28;20120;-66
2023/08/09 04:32:07;;;;;;;13.45;4.32;;;10.50;98.10;;;;;;5016629;28;20041;-67
2023/08/09 04:34:32;;;;;;;13.65;3.92;;;10.60;98.10;;;;;;5024627;28;20043;-66
2023/08/09 04:36:58;;;;;;;7.57;3.97;;;10.60;98.00;;;;;;5027127;28;20029;-67
2023/08/09 04:39:24;;;;;;;14.38;4.10;;;10.70;97.90;;;;;;5024375;28;20041;-67
2023/08/09 04:41:49;;;;;;;9.27;3.88;;;10.70;97.90;;;;;;5029836;28;20029;-66
2023/08/09 04:44:15;;;;;;;10.27;4.13;;;10.80;97.90;;;;;;5021984;28;20474;-67
2023/08/09 04:46:41;;;;;;;12.40;4.15;;;10.90;97.70;;;;;;5021826;28;20495;-67
2023/08/09 04:49:06;;;;;;;13.35;4.07;;;11.00;97.70;;;;;;5028985;28;20103;-66
2023/08/09 04:51:32;;;;;;;13.45;4.85;;;11.10;97.60;;;;;;5028367;28;20037;-66
2023/08/09 04:53:57;;;;;;;10.85;4.40;;;11.10;97.50;;;;;;5019241;28;20363;-66
2023/08/09 04:56:23;;;;;;;11.95;4.38;;;11.20;97.40;;;;;;5029632;28;20082;-67
2023/08/09 04:58:49;;;;;;;8.05;4.40;;;11.30;97.20;;;;;;5020599;28;20087;-67
2023/08/09 05:01:14;;;;;;;11.88;4.30;;;11.30;97.10;;;;;;5021895;28;20038;-68
2023/08/09 05:03:40;;;;;;;10.32;4.03;;;11.40;97.10;;;;;;5031458;28;20107;-66
2023/08/09 05:06:05;;;;;;;8.70;3.92;;;11.50;97.00;;;;;;5020683;28;20044;-66
2023/08/09 05:08:31;;;;;;;11.50;4.28;;;11.60;96.90;;;;;;5040903;28;20042;-67
2023/08/09 05:10:56;;;;;;;14.73;4.75;;;11.60;96.60;;;;;;5037710;28;20029;-69
2023/08/09 05:13:22;;;;;;;9.63;3.42;;;11.70;96.50;;;;;;5039285;28;20060;-66
2023/08/09 05:15:47;;;;;;;9.07;3.65;;;11.80;96.20;;;;;;5045232;28;20021;-67
2023/08/09 05:18:13;;;;;;;11.10;3.83;;;11.90;95.90;;;;;;5038928;28;20376;-66
2023/08/09 05:20:38;;;;;;;14.05;3.72;;;12.00;95.80;;;;;;5039752;28;20033;-67
2023/08/09 05:23:04;;;;;;;10.75;3.95;;;12.00;95.70;;;;;;5029398;28;20040;-67
2023/08/09 05:25:29;;;;;;;11.20;3.90;;;12.10;95.40;;;;;;5030993;28;20084;-66
2023/08/09 05:27:55;;;;;;;8.93;3.13;;;12.10;95.30;;;;;;5045505;28;20536;-67
2023/08/09 05:30:22;;;;;;;8.70;3.60;;;12.10;95.30;;;;;;5047562;28;20060;-66
2023/08/09 05:32:48;;;;;;;8.02;2.95;;;12.10;95.10;;;;;;5034232;28;20435;-67
2023/08/09 05:35:13;;;;;;;8.57;3.45;;;12.20;95.10;;;;;;5040936;28;20037;-67
2023/08/09 05:37:39;;;;;;;7.55;2.95;;;12.20;95.00;;;;;;5035763;28;20021;-67
2023/08/09 05:40:09;;;;;;;6.72;2.83;;;12.20;95.00;;;;;;5032552;28;20041;-66
2023/08/09 05:42:35;;;;;;;9.07;2.95;;;12.30;94.90;;;;;;5037187;28;20120;-67
2023/08/09 05:45:00;;;;;;;11.60;3.10;;;12.30;94.80;;;;;;5029497;28;20119;-67
2023/08/09 05:47:26;;;;;;;8.45;2.80;;;12.30;94.60;;;;;;5031966;28;20518;-67
2023/08/09 05:49:51;;;;;;;7.13;2.92;;;12.30;94.60;;;;;;5042250;28;20044;-67
2023/08/09 05:52:17;;;;;;;6.35;3.20;;;12.40;94.50;;;;;;5033249;28;20410;-67
2023/08/09 05:54:42;;;;;;;10.00;3.30;;;12.50;94.50;;;;;;5021512;28;20046;-67
2023/08/09 05:57:08;;;;;;;8.65;3.28;;;12.60;94.40;;;;;;5036064;28;20101;-66
2023/08/09 05:59:34;;;;;;;6.97;2.83;;;12.60;94.00;;;;;;5034344;28;20118;-67
2023/08/09 06:02:00;;;;;;;8.25;3.20;;;12.60;93.90;;;;;;5027982;28;20026;-67
2023/08/09 06:04:26;;;;;;;5.95;3.00;;;12.60;93.70;;;;;;5038055;28;20029;-67
2023/08/09 06:06:51;;;;;;;9.20;2.85;;;12.60;93.40;;;;;;5027249;28;20025;-68
2023/08/09 06:09:17;;;;;;;8.85;2.78;;;12.70;93.60;;;;;;5028346;28;20036;-67
2023/08/09 06:11:43;;;;;;;7.13;2.55;;;12.70;93.50;;;;;;5022878;28;20040;-67
2023/08/09 06:14:08;;;;;;;6.28;2.67;;;12.90;93.40;;;;;;5033025;28;20439;-67
2023/08/09 06:16:34;;;;;;;7.55;2.60;;;12.90;92.90;;;;;;5030986;28;20389;-67
2023/08/09 06:19:00;;;;;;;8.30;2.70;;;12.90;92.90;;;;;;5028177;28;20033;-67
2023/08/09 06:21:25;;;;;;;6.72;2.70;;;13.00;92.90;;;;;;5029937;28;20030;-70
2023/08/09 06:23:51;;;;;;;5.38;2.42;;;13.10;93.00;;;;;;5033369;28;20103;-67
2023/08/09 06:26:16;;;;;;;7.40;2.00;;;13.20;92.70;;;;;;5042440;28;20033;-67
2023/08/09 06:28:42;;;;;;;6.25;2.45;;;13.20;92.00;;;;;;5030120;28;20044;-69
2023/08/09 06:31:08;;;;;;;6.20;2.08;;;13.30;91.90;;;;;;5040964;28;20032;-67
2023/08/09 06:33:40;;;;;;;8.23;2.60;;;13.50;91.80;;;;;;5029692;28;20636;-67
2023/08/09 06:36:07;;;;;;;6.25;2.13;;;13.50;90.80;;;;;;5037242;28;20029;-67
2023/08/09 06:38:32;;;;;;;6.90;1.98;;;13.50;90.40;;;;;;5030640;28;20035;-68
2023/08/09 06:40:58;;;;;;;6.43;1.83;;;13.50;90.90;;;;;;5043172;28;20025;-67
2023/08/09 06:43:23;;;;;;;3.45;1.80;;;13.50;90.80;;;;;;5035773;28;20036;-67
2023/08/09 06:45:49;;;;;;;8.43;1.85;;;13.60;90.50;;;;;;5021183;28;20428;-67
2023/08/09 06:48:14;;;;;;;5.72;2.15;;;13.70;90.30;;;;;;5029922;28;20059;-68
2023/08/09 06:50:40;;;;;;;5.80;2.15;;;13.90;89.30;;;;;;5040559;28;20529;-68
2023/08/09 06:53:06;;;;;;;3.95;1.77;;;14.30;89.80;;;;;;5029408;28;20040;-68
2023/08/09 06:55:32;;;;;;;5.75;1.92;;;14.30;89.20;;;;;;5038637;28;20040;-68
2023/08/09 06:57:57;;;;;;;5.03;1.77;;;14.30;88.60;;;;;;5027150;28;20038;-68
2023/08/09 07:00:23;;;;;;;4.60;1.63;;;14.20;88.80;;;;;;5022064;28;20045;-68
2023/08/09 07:02:50;;;;;;;8.00;2.20;;;14.10;88.60;;;;;;5032138;28;20501;-68
2023/08/09 07:05:18;;;;;;;6.93;1.80;;;14.20;89.00;;;;;;5036863;28;20460;-68
2023/08/09 07:07:45;;;;;;;7.70;1.90;;;14.30;88.30;;;;;;5033075;28;20052;-68
2023/08/09 07:10:11;;;;;;;6.88;1.90;;;14.40;87.60;;;;;;5028924;28;20470;-68
2023/08/09 07:12:37;;;;;;;7.55;1.95;;;14.30;87.30;;;;;;5027173;28;20064;-69
2023/08/09 07:15:07;;;;;;;9.40;2.00;;;14.50;87.70;;;;;;5030401;28;20029;-67
2023/08/09 07:17:32;;;;;;;9.63;1.88;;;14.80;87.10;;;;;;5024137;28;20482;-68
2023/08/09 07:19:58;;;;;;;6.13;2.03;;;14.80;86.70;;;;;;5033660;28;20053;-68
2023/08/09 07:22:24;;;;;;;5.13;1.70;;;14.80;87.30;;;;;;5023696;28;20548;-68
2023/08/09 07:24:49;;;;;;;5.43;1.50;;;14.70;87.30;;;;;;5026832;28;20049;-68
2023/08/09 07:27:14;;;;;;;7.03;1.45;;;14.60;87.30;;;;;;5036257;28;20025;-68
2023/08/09 07:29:40;;;;;;;10.88;1.77;;;14.40;89.30;;;;;;5024572;28;20035;-69
2023/08/09 07:32:06;;;;;;;5.88;1.40;;;14.00;91.20;;;;;;5028800;28;20059;-68
2023/08/09 07:34:32;;;;;;;5.53;1.50;;;13.80;92.30;;;;;;5022733;28;20068;-69
2023/08/09 07:36:57;;;;;;;9.50;1.92;;;13.80;93.40;;;;;;5027133;28;20088;-69
2023/08/09 07:39:25;;;;;;;6.90;1.90;;;13.80;93.60;;;;;;5024167;28;20041;-68
2023/08/09 07:41:50;;;;;;;4.55;2.00;;;13.70;94.00;;;;;;5029929;28;20022;-68
2023/08/09 07:44:16;;;;;;;10.73;2.00;;;13.60;94.50;;;;;;5020311;28;20025;-69
2023/08/09 07:46:42;;;;;;;7.70;2.00;;;13.60;94.80;;;;;;5014787;28;20066;-69
2023/08/09 07:49:07;;;;;;;5.57;2.40;;;13.70;95.20;;;;;;5023737;28;20029;-69
2023/08/09 07:51:32;;;;;;;10.25;2.53;;;13.80;95.30;;;;;;5024732;28;20439;-69
2023/08/09 07:53:58;;;;;;;4.57;2.15;;;13.80;95.00;;;;;;5021451;28;20072;-66
2023/08/09 07:56:23;;;;;;;16.90;6.32;;;13.80;94.90;;;;;;5041317;28;20049;-66
2023/08/09 07:58:49;;;;;;;10.02;3.38;;;14.00;95.30;;;;;;5030558;28;20048;-67
2023/08/09 08:01:15;;;;;;;7.38;2.47;;;14.10;95.40;;;;;;5049652;28;20060;-65
2023/08/09 08:03:40;;;;;;;9.35;2.28;;;14.20;94.90;;;;;;5034746;28;20207;-66
2023/08/09 08:06:06;;;;;;;8.48;2.10;;;14.30;94.70;;;;;;5035638;28;20398;-66
2023/08/09 08:08:31;;;;;;;5.35;1.70;;;14.20;93.50;;;;;;5039990;28;20104;-66
2023/08/09 08:10:57;;;;;;;5.63;1.40;;;14.20;93.30;;;;;;5047155;28;20045;-66
2023/08/09 08:13:23;;;;;;;5.55;1.98;;;14.20;93.00;;;;;;5038921;28;20037;-66
2023/08/09 08:15:50;;;;;;;6.18;1.73;;;14.20;92.20;;;;;;5026671;28;20025;-66
2023/08/09 08:18:15;;;;;;;9.77;1.52;;;14.40;92.70;;;;;;5031817;28;20041;-66
2023/08/09 08:20:42;;;;;;;7.95;1.55;;;14.40;92.00;;;;;;5045028;28;20025;-66
2023/08/09 08:23:07;;;;;;;4.00;1.13;;;14.50;91.80;;;;;;5032879;28;20073;-66
2023/08/09 08:25:33;;;;;;;9.10;1.25;;;14.60;91.50;;;;;;5038257;28;20077;-66
2023/08/09 08:27:59;;;;;;;7.82;1.40;;;14.70;91.10;;;;;;5025677;28;20029;-67
2023/08/09 08:30:24;;;;;;;3.92;1.17;;;14.70;90.80;;;;;;5030608;28;20063;-66
2023/08/09 08:32:53;;;;;;;7.68;1.92;;;14.90;90.30;;;;;;5028793;28;20034;-66
2023/08/09 08:35:24;;;;;;;9.32;1.65;;;14.90;90.00;;;;;;5027621;28;20537;-66
2023/08/09 08:37:50;;;;;;;;;;;15.00;88.70;;;;;;5035524;28;20037;-66
2023/08/09 08:40:20;;;;;;;3.42;1.33;;;15.20;90.00;;;;;;5032685;28;19912;-65
2023/08/09 08:42:49;;;;;;;7.70;1.52;;;15.50;89.80;;;;;;5033498;28;20685;-70
2023/08/09 08:45:16;;;;;;;5.07;1.45;;;15.80;89.20;;;;;;5035129;28;20033;-68
2023/08/09 08:47:43;;;;;;;8.50;1.30;;;15.70;88.10;;;;;;5030002;28;20053;-67
2023/08/09 08:50:10;;;;;;;9.52;1.35;;;15.70;87.50;;;;;;5031267;28;20021;-67
2023/08/09 08:52:42;;;;;;;6.90;1.40;;;16.20;86.50;;;;;;5030989;28;20034;-67
2023/08/09 08:55:09;;;;;;;5.10;1.23;;;16.10;85.70;;;;;;5036947;28;20033;-67
2023/08/09 08:57:35;;;;;;;9.50;1.50;;;16.10;86.60;;;;;;5031686;28;20018;-67
2023/08/09 09:00:08;;;;;;;6.30;1.15;;;16.00;86.00;;;;;;5028129;28;20072;-68
2023/08/09 09:02:36;;;;;;;7.25;1.60;;;16.00;86.50;;;;;;5028241;28;20026;-67
2023/08/09 09:05:02;;;;;;;6.47;1.10;;;15.90;86.60;;;;;;5038218;28;20036;-68
2023/08/09 09:07:29;;;;;;;4.18;1.00;;;15.90;86.80;;;;;;5021213;28;20389;-67
2023/08/09 09:10:03;;;;;;;7.10;1.30;;;15.70;87.10;;;;;;5033664;28;20029;-67
2023/08/09 09:12:29;;;;;;;12.65;1.08;;;15.50;88.70;;;;;;5023059;28;20109;-67
2023/08/09 09:14:54;;;;;;;7.57;1.55;;;15.30;90.10;;;;;;5033845;28;20465;-67
2023/08/09 09:17:21;;;;;;;5.65;1.35;;;15.20;90.60;;;;;;5026368;28;20429;-67
2023/08/09 09:19:47;;;;;;;5.00;1.33;;;15.30;90.80;;;;;;5027031;28;20032;-67
2023/08/09 09:22:27;;;;;;;11.00;1.63;;;15.50;90.90;;;;;;5028413;28;20125;-67
2023/08/09 09:24:53;;;;;;;8.95;1.50;;;15.60;90.70;;;;;;5025586;28;20103;-67
2023/08/09 09:27:27;;;;;;;4.18;1.23;;;15.50;90.00;;;;;;5036827;28;20488;-67
2023/08/09 09:29:52;;;;;;;4.07;1.30;;;15.20;90.10;;;;;;5036210;28;20087;-68
2023/08/09 09:32:18;;;;;;;9.45;1.60;;;15.00;90.40;;;;;;5034802;28;20041;-67
2023/08/09 09:34:46;;;;;;;9.93;1.50;;;14.60;91.70;;;;;;5034910;28;20045;-68
2023/08/09 09:37:17;;;;;;;8.00;1.50;;;14.30;93.30;;;;;;5032719;28;20045;-68
2023/08/09 09:39:43;;;;;;;9.77;1.42;;;14.10;94.40;;;;;;5038683;28;20638;-67
2023/08/09 09:42:10;;;;;;;7.07;1.42;;;14.00;95.10;;;;;;5036496;28;20051;-68
2023/08/09 09:44:35;;;;;;;5.82;1.52;;;14.00;94.60;;;;;;5032974;28;20070;-68
2023/08/09 09:47:02;;;;;;;6.30;1.38;;;14.00;94.70;;;;;;5031596;28;20466;-69
2023/08/09 09:49:28;;;;;;;6.30;1.25;;;14.10;95.00;;;;;;5032581;28;20033;-67
2023/08/09 09:51:56;;;;;;;11.57;1.77;;;14.20;94.90;;;;;;5032221;28;20029;-67
2023/08/09 09:54:23;;;;;;;7.05;1.55;;;14.50;95.10;;;;;;5033718;28;20461;-67
2023/08/09 09:56:48;;;;;;;6.30;1.77;;;15.00;95.00;;;;;;5033761;28;20477;-68
2023/08/09 09:59:14;;;;;;;8.98;1.60;;;15.40;93.80;;;;;;5031253;28;20029;-68
2023/08/09 10:01:42;;;;;;;7.22;1.73;;;15.70;92.80;;;;;;5033280;28;20430;-67
2023/08/09 10:04:10;;;;;;;7.57;1.85;;;16.00;92.70;;;;;;5031784;28;20041;-68
2023/08/09 10:06:41;;;;;;;6.00;1.70;;;16.40;92.00;;;;;;5039203;28;20053;-67
2023/08/09 10:09:09;;;;;;;8.68;1.50;;;16.70;91.10;;;;;;5045541;28;20029;-68
2023/08/09 10:11:36;;;;;;;6.38;1.65;;;17.20;91.10;;;;;;5039633;28;20033;-68
2023/08/09 10:14:03;;;;;;;4.82;1.50;;;17.40;90.10;;;;;;5044430;28;20045;-68
2023/08/09 10:16:31;;;;;;;6.13;1.50;;;17.50;90.60;;;;;;5030773;28;20061;-68
2023/08/09 10:19:02;;;;;;;5.50;1.05;;;17.40;87.50;;;;;;5045535;28;20029;-65
2023/08/09 10:21:27;;;;;;;;;;;17.00;86.70;;;;;;5043813;28;20064;-66
2023/08/09 10:24:07;;;;;;;4.15;1.00;;;17.00;85.50;;;;;;5037498;28;19904;-66
2023/08/09 10:26:36;;;;;;;5.32;1.17;;;17.10;87.20;;;;;;5028451;28;20497;-65
2023/08/09 10:29:04;;;;;;;8.07;1.15;;;17.00;86.00;;;;;;5050057;28;20036;-64
2023/08/09 10:31:57;;;;;;;7.32;1.20;;;16.70;86.10;;;;;;5043399;28;20033;-65
2023/08/09 10:34:32;;;;;;;5.97;1.30;;;16.50;86.20;;;;;;5031224;28;20493;-64
2023/08/09 10:37:00;;;;;;;8.85;1.33;;;16.30;87.70;;;;;;5045049;28;20038;-65
2023/08/09 10:39:25;;;;;;;11.07;1.50;;;15.80;89.30;;;;;;5038905;28;20026;-65
2023/08/09 10:42:06;;;;;;;6.80;1.10;;;15.40;90.50;;;;;;5049123;28;20040;-65
2023/08/09 10:44:32;;;;;;;4.97;1.20;;;15.00;90.70;;;;;;5041069;28;20033;-66
2023/08/09 10:47:21;;;;;;;5.13;1.30;;;14.60;92.40;;;;;;5036580;28;20036;-65
2023/08/09 10:49:52;;;;;;;4.22;0.98;;;14.20;94.50;;;;;;5033564;28;20025;-65
2023/08/09 10:52:28;;;;;;;4.20;1.15;;;14.10;95.40;;;;;;5040853;28;20034;-64
2023/08/09 10:55:24;;;;;;;5.72;1.30;;;14.00;94.60;;;;;;5043158;28;20086;-64
2023/08/09 10:57:51;;;;;;;5.43;1.05;;;13.90;94.00;;;;;;5041682;28;20052;-65
2023/08/09 11:00:19;;;;;;;8.50;1.25;;;13.90;93.50;;;;;;5024608;28;20405;-65
2023/08/09 11:02:45;;;;;;;5.78;1.30;;;14.00;93.00;;;;;;5036861;28;20033;-65
2023/08/09 11:05:12;;;;;;;4.85;1.25;;;14.10;93.00;;;;;;5035676;28;20041;-65
2023/08/09 11:07:42;;;;;;;5.93;1.20;;;14.20;93.10;;;;;;5033124;28;20112;-64
2023/08/09 11:10:08;;;;;;;4.63;0.95;;;14.30;93.10;;;;;;5040967;28;20045;-65
2023/08/09 11:12:35;;;;;;;3.40;1.05;;;14.40;92.40;;;;;;5038657;28;20033;-64
2023/08/09 11:15:00;;;;;;;6.95;1.50;;;14.60;91.80;;;;;;5030676;28;20034;-65
2023/08/09 11:17:25;;;;;;;2.63;1.08;;;14.70;91.20;;;;;;5036778;28;20108;-65
2023/08/09 11:19:51;;;;;;;2.55;0.82;;;14.80;92.10;;;;;;5034986;28;20467;-65
2023/08/09 11:22:16;;;;;;;4.95;0.70;;;15.20;90.60;;;;;;5025371;28;20092;-67
2023/08/09 11:24:42;;;;;;;4.55;1.17;;;16.00;90.30;;;;;;5020003;28;20089;-65
2023/08/09 11:27:10;;;;;;;3.35;1.10;;;16.40;88.90;;;;;;5023649;28;20030;-66
2023/08/09 11:29:37;;;;;;;6.47;0.90;;;17.00;89.80;;;;;;5034195;28;20484;-66
2023/08/09 11:32:03;;;;;;;5.50;1.23;;;17.20;90.10;;;;;;5022540;28;20120;-66
2023/08/09 11:34:29;;;;;;;5.43;1.42;;;17.20;88.80;;;;;;5027582;28;20393;-65
2023/08/09 11:36:56;;;;;;;4.45;1.02;;;17.10;87.90;;;;;;5029101;28;20113;-65
2023/08/09 11:39:24;;;;;;;4.00;1.05;;;16.90;87.70;;;;;;5033069;28;20090;-65
2023/08/09 11:41:55;;;;;;;4.90;1.13;;;16.90;88.50;;;;;;5026816;28;20060;-65
2023/08/09 11:44:26;;;;;;;8.77;1.27;;;16.80;87.60;;;;;;5025235;28;20033;-65
2023/08/09 11:46:56;;;;;;;5.18;0.80;;;17.00;88.30;;;;;;5022226;28;20104;-64
2023/08/09 11:49:40;;;;;;;3.77;0.80;;;17.00;86.60;;;;;;5020184;28;20120;-66
2023/08/09 11:52:06;;;;;;;4.70;1.23;;;17.00;88.80;;;;;;5021345;28;20053;-65
2023/08/09 11:54:32;;;;;;;4.13;0.98;;;16.80;88.80;;;;;;5018717;28;20038;-65
2023/08/09 11:57:01;;;;;;;7.63;1.30;;;16.60;88.60;;;;;;5025005;28;20359;-66
2023/08/09 11:59:26;;;;;;;8.02;1.20;;;16.50;90.70;;;;;;5016508;28;20414;-64
2023/08/09 12:01:56;;;;;;;6.15;1.38;;;16.40;90.00;;;;;;5024489;28;20022;-66
2023/08/09 12:04:24;;;;;;;7.53;1.17;;;16.40;90.60;;;;;;5015234;28;20025;-65
2023/08/09 12:06:51;;;;;;;4.10;1.20;;;17.40;90.00;;;;;;5016446;28;20474;-65
2023/08/09 12:09:36;;;;;;;2.67;1.00;;;17.70;86.80;;;;;;5021215;28;20048;-65
2023/08/09 12:12:08;;;;;;;5.85;1.23;;;18.20;87.00;;;;;;5031560;28;20077;-66
2023/08/09 12:14:38;;;;;;;3.15;0.80;;;18.80;84.70;;;;;;5026994;28;20112;-66
2023/08/09 12:17:05;;;;;;;4.93;1.23;;;18.20;82.20;;;;;;5041878;28;20059;-65
2023/08/09 12:19:31;;;;;;;6.18;1.00;;;17.90;83.40;;;;;;5050202;28;20051;-65
2023/08/09 12:21:58;;;;;;;5.43;1.10;;;17.60;84.10;;;;;;5024564;28;20048;-66
2023/08/09 12:24:23;;;;;;;5.88;1.20;;;17.50;84.00;;;;;;5032186;28;20080;-65
2023/08/09 12:26:50;;;;;;;4.47;0.80;;;17.50;85.80;;;;;;5023658;28;20112;-65
2023/08/09 12:29:16;;;;;;;3.97;0.90;;;17.30;84.40;;;;;;5048570;28;20472;-65
2023/08/09 12:31:41;;;;;;;5.22;0.82;;;17.60;85.30;;;;;;5027327;28;20122;-66
2023/08/09 12:34:09;;;;;;;4.13;1.00;;;18.40;80.50;;;;;;5042517;28;20037;-65
2023/08/09 12:36:35;;;;;;;7.00;0.93;;;19.20;79.70;;;;;;5027594;28;20216;-65
2023/08/09 12:39:00;;;;;;;6.53;1.15;;;19.30;77.80;;;;;;5038028;28;20041;-65
2023/08/09 12:41:26;;;;;;;6.18;1.00;;;18.90;78.90;;;;;;5042581;28;20028;-65
2023/08/09 12:43:51;;;;;;;4.53;0.90;;;18.90;76.00;;;;;;5025546;28;20025;-64